Alread, AR

4:16 PM CDT on October 20, 2014 (GMT -0500)
Lakewood | Change Station
CLOSE
Current Station
Personal Weather Station
Location: Fairfield Bay, AR
Elevation: 827 ft
Nearby Weather Stations

Elev 827 ft 35.58 °N, 92.28 °W | Updated 29 seconds ago

Partly Cloudy
Partly Cloudy
68.3 °F
Feels Like 68.3 °F
N
0.0
Wind Variable Wind from SSE
Gusts 0.0 mph

Today
High -- | Low -- °F
--% Chance of Precip.
Yesterday
High -- | Low -- °F
Precip. -- in
7:20 AM 6:28 PM
Waning Crescent, 9% visible
Pressure 30.01 in
Visibility 10.0 miles
Clouds Few 3000 ft
Scattered Clouds 5500 ft
Dew Point 60 °F
Humidity 76%
Rainfall 0.02 in
Snow Depth Not available.
UV 2 out of 12
Pollen 3.70 out of 12
Air Quality Not available.
Flu Activity Sporadic
METAR KRUE 202053Z AUTO 31007KT 10SM FEW030 SCT055 22/13 A3003 RMK AO2 SLP162 T02170128 56017

More Conditions Fewer Conditions

Pressure 30.01 in
Visibility 10.0 miles
Clouds Few 3000 ft
Scattered Clouds 5500 ft
Dew Point 60 °F
Humidity 76%
Rainfall 0.02 in
Snow Depth Not available.
UV 2 out of 12
Pollen 3.70 out of 12
Air Quality Not available.
Flu Activity Sporadic
METAR KRUE 202053Z AUTO 31007KT 10SM FEW030 SCT055 22/13 A3003 RMK AO2 SLP162 T02170128 56017

More Conditions Fewer Conditions

10-Day Weather Forecast

Almanac

Astronomy

Oct. 20, 2014 Rise Set
Actual Time 7:20 AM CDT 6:28 PM CDT
Civil Twilight 6:54 AM CDT 6:54 PM CDT
Nautical Twilight 6:25 AM CDT 7:23 PM CDT
Astronomical Twilight 5:55 AM CDT 7:53 PM CDT
Moon 4:15 AM CDT 4:45 PM CDT
Length of Visible Light 11h 59m
Length of Day
11h 07m
Waning Crescent, 9% of the Moon is Illuminated
Today
Waning Crescent
Oct 23
New
Oct 30
First Quarter
Nov 6
Full
Nov 14
Last Quarter

Today's Extremes

State Highs State Lows

Community

WunderPhotos

Upload Photos

1,763,510 photos uploaded!

WunderBlogs® & News

Nearby

Snow Depth

Station Depth Elevation
No new snow has been reported.

Earthquake Activity

City Distance Mag. Time & Date
No recent earthquake activity has been reported nearby.
Minimum magnitude displayed is 2.5.

Coastal Water Temperatures

Place Temperature
No Stations Reporting

Nearby Weather Stations